createdAt,value
2018-10-19T00:00:24.115Z,13.80
2018-10-19T00:02:53.487Z,13.73
2018-10-19T00:05:23.017Z,15.10
2018-10-19T00:07:52.454Z,13.53
2018-10-19T00:10:22.252Z,13.40
2018-10-19T00:12:51.927Z,12.50
2018-10-19T00:15:21.406Z,12.77
2018-10-19T00:17:50.964Z,13.53
2018-10-19T00:20:20.548Z,12.70
2018-10-19T00:22:49.912Z,13.20
2018-10-19T00:25:19.232Z,12.30
2018-10-19T00:27:48.638Z,13.93
2018-10-19T00:30:18.035Z,14.73
2018-10-19T00:32:47.410Z,13.80
2018-10-19T00:35:16.814Z,13.30
2018-10-19T00:37:46.052Z,13.47
2018-10-19T00:40:15.398Z,12.30
2018-10-19T00:42:44.698Z,14.07
2018-10-19T00:45:14.136Z,13.17
2018-10-19T00:47:43.445Z,13.63
2018-10-19T00:50:12.839Z,14.20
2018-10-19T00:52:42.316Z,12.67
2018-10-19T00:55:11.760Z,14.07
2018-10-19T00:57:41.213Z,13.93
2018-10-19T01:00:10.471Z,12.73
2018-10-19T01:02:40.292Z,12.73
2018-10-19T01:05:09.557Z,14.03
2018-10-19T01:07:38.797Z,13.53
2018-10-19T01:10:08.081Z,12.37
2018-10-19T01:12:37.524Z,13.63
2018-10-19T01:15:07.046Z,12.60
2018-10-19T01:17:36.439Z,13.40
2018-10-19T01:20:05.969Z,13.97
2018-10-19T01:22:35.428Z,14.30
2018-10-19T01:25:05.011Z,14.40
2018-10-19T01:27:34.762Z,12.60
2018-10-19T01:30:04.429Z,12.90
2018-10-19T01:32:33.918Z,13.33
2018-10-19T01:35:03.667Z,13.77
2018-10-19T01:37:33.109Z,15.00
2018-10-19T01:40:02.400Z,13.63
2018-10-19T01:42:31.683Z,15.10
2018-10-19T01:45:01.258Z,16.43
2018-10-19T01:47:30.709Z,14.73
2018-10-19T01:50:00.705Z,13.70
2018-10-19T01:52:30.035Z,13.47
2018-10-19T01:54:59.389Z,12.90
2018-10-19T01:57:28.772Z,13.27
2018-10-19T01:59:58.302Z,13.10
2018-10-19T02:02:27.808Z,13.57
2018-10-19T02:04:57.195Z,13.50
2018-10-19T02:07:26.594Z,11.33
2018-10-19T02:09:55.936Z,13.17
2018-10-19T02:12:25.282Z,13.00
2018-10-19T02:14:54.536Z,12.33
2018-10-19T02:17:23.919Z,13.90
2018-10-19T02:19:53.264Z,13.13
2018-10-19T02:22:22.814Z,13.47
2018-10-19T02:24:52.176Z,14.00
2018-10-19T02:27:21.506Z,13.40
2018-10-19T02:29:50.764Z,13.20
2018-10-19T02:32:20.158Z,12.77
2018-10-19T02:34:49.585Z,12.90
2018-10-19T02:37:19.162Z,13.77
2018-10-19T02:39:48.664Z,13.30
2018-10-19T02:42:18.360Z,13.10
2018-10-19T02:44:48.353Z,12.77
2018-10-19T02:47:17.691Z,13.93
2018-10-19T02:49:46.912Z,13.57
2018-10-19T02:52:16.255Z,14.30
2018-10-19T02:54:45.705Z,13.60
2018-10-19T02:57:15.201Z,12.83
2018-10-19T02:59:44.532Z,13.97
2018-10-19T03:02:13.770Z,14.13
2018-10-19T03:04:43.345Z,12.83
2018-10-19T03:07:12.766Z,14.90
2018-10-19T03:09:42.150Z,13.63
2018-10-19T03:12:11.320Z,13.43
2018-10-19T03:14:40.586Z,13.13
2018-10-19T03:17:10.162Z,12.50
2018-10-19T03:19:39.559Z,13.47
2018-10-19T03:22:08.956Z,12.57
2018-10-19T03:24:38.204Z,12.13
2018-10-19T03:27:08.418Z,12.40
2018-10-19T03:29:37.779Z,13.60
2018-10-19T03:32:07.263Z,12.50
2018-10-19T03:34:36.507Z,11.80
2018-10-19T03:37:06.177Z,13.37
2018-10-19T03:39:35.643Z,12.53
2018-10-19T03:42:04.865Z,11.70
2018-10-19T03:44:34.211Z,11.60
2018-10-19T03:47:03.744Z,13.17
2018-10-19T03:49:33.061Z,14.10
2018-10-19T03:52:02.607Z,13.37
2018-10-19T03:54:32.213Z,14.40
2018-10-19T03:57:01.788Z,12.83
2018-10-19T03:59:31.116Z,12.40
2018-10-19T04:02:00.505Z,14.03
2018-10-19T04:04:29.897Z,13.40
2018-10-19T04:06:59.227Z,12.43
2018-10-19T04:09:28.656Z,11.30
2018-10-19T04:11:58.076Z,13.93
2018-10-19T04:14:27.332Z,11.33
2018-10-19T04:16:56.868Z,12.20
2018-10-19T04:19:26.296Z,13.17
2018-10-19T04:21:55.783Z,11.83
2018-10-19T04:24:25.041Z,12.67
2018-10-19T04:26:55.421Z,13.90
2018-10-19T04:29:24.811Z,14.77
2018-10-19T04:31:54.263Z,13.93
2018-10-19T04:34:23.717Z,14.53
2018-10-19T04:36:57.560Z,13.40
2018-10-19T04:39:26.901Z,14.83
2018-10-19T04:41:56.269Z,13.90
2018-10-19T04:44:25.907Z,14.43
2018-10-19T04:46:55.730Z,14.13
2018-10-19T04:49:25.442Z,13.50
2018-10-19T04:51:54.813Z,14.10
2018-10-19T04:54:24.355Z,12.97
2018-10-19T04:56:53.784Z,12.90
2018-10-19T04:59:23.176Z,13.20
2018-10-19T05:01:52.542Z,14.00
2018-10-19T05:04:22.001Z,12.47
2018-10-19T05:06:51.318Z,13.93
2018-10-19T05:09:20.704Z,13.63
2018-10-19T05:11:50.010Z,15.90
2018-10-19T05:14:20.318Z,15.00
2018-10-19T05:16:49.573Z,14.90
2018-10-19T05:19:18.802Z,14.40
2018-10-19T05:21:48.121Z,12.80
2018-10-19T05:24:17.424Z,14.00
2018-10-19T05:26:46.649Z,13.00
2018-10-19T05:29:16.053Z,13.70
2018-10-19T05:31:46.226Z,13.40
2018-10-19T05:34:15.656Z,12.90
2018-10-19T05:36:45.030Z,13.80
2018-10-19T05:39:14.323Z,13.80
2018-10-19T05:41:43.699Z,14.70
2018-10-19T05:44:13.225Z,14.13
2018-10-19T05:46:42.517Z,13.20
2018-10-19T05:49:12.075Z,12.30
2018-10-19T05:51:41.470Z,12.80
2018-10-19T05:54:10.753Z,13.17
2018-10-19T05:56:40.091Z,13.03
2018-10-19T05:59:09.474Z,11.70
2018-10-19T06:01:38.971Z,10.53
2018-10-19T06:04:08.567Z,12.03
2018-10-19T06:06:37.972Z,11.97
2018-10-19T06:09:09.624Z,10.47
2018-10-19T06:11:39.029Z,10.73
2018-10-19T06:14:08.844Z,11.73
2018-10-19T06:16:38.384Z,11.93
2018-10-19T06:19:09.424Z,13.07
2018-10-19T06:21:38.732Z,12.57
2018-10-19T06:24:08.964Z,12.60
2018-10-19T06:26:38.699Z,12.23
2018-10-19T06:29:08.161Z,12.30
2018-10-19T06:31:37.470Z,12.23
2018-10-19T06:34:06.755Z,12.83
2018-10-19T06:36:36.114Z,15.00
2018-10-19T06:39:07.062Z,14.30
2018-10-19T06:41:36.488Z,13.50
2018-10-19T06:44:06.200Z,14.70
2018-10-19T06:46:35.738Z,15.47
2018-10-19T06:49:05.093Z,16.93
2018-10-19T06:51:34.684Z,15.93
2018-10-19T06:54:04.269Z,18.80
2018-10-19T06:56:33.623Z,15.97
2018-10-19T06:59:03.215Z,15.23
2018-10-19T07:01:32.714Z,13.57
2018-10-19T07:04:02.257Z,13.63
2018-10-19T07:06:31.754Z,13.57
2018-10-19T07:09:01.886Z,16.40
2018-10-19T07:11:31.318Z,18.80
2018-10-19T07:14:00.688Z,19.57
2018-10-19T07:16:30.037Z,19.93
2018-10-19T07:18:59.490Z,20.00
2018-10-19T07:21:28.847Z,18.57
2018-10-19T07:23:58.170Z,22.03
2018-10-19T07:26:27.541Z,21.97
2018-10-19T07:28:57.041Z,20.77
2018-10-19T07:31:26.405Z,21.93
2018-10-19T07:33:55.879Z,20.97
2018-10-19T07:36:25.899Z,19.97
2018-10-19T07:38:55.246Z,23.37
2018-10-19T07:41:24.545Z,21.60
2018-10-19T07:43:53.899Z,24.47
2018-10-19T07:46:23.201Z,23.70
2018-10-19T07:48:52.530Z,22.53
2018-10-19T07:51:22.127Z,21.10
2018-10-19T07:53:51.259Z,21.00
2018-10-19T07:56:20.755Z,22.83
2018-10-19T07:58:50.136Z,21.90
2018-10-19T08:01:19.397Z,24.70
2018-10-19T08:03:48.748Z,21.00
2018-10-19T08:06:17.992Z,21.27
2018-10-19T08:08:47.385Z,20.47
2018-10-19T08:11:16.710Z,20.90
2018-10-19T08:13:46.097Z,23.70
2018-10-19T08:16:15.626Z,23.20
2018-10-19T08:18:45.277Z,21.80
2018-10-19T08:21:14.821Z,20.80
2018-10-19T08:23:44.221Z,18.90
2018-10-19T08:26:13.689Z,19.37
2018-10-19T08:28:43.148Z,19.87
2018-10-19T08:31:13.732Z,19.87
2018-10-19T08:33:42.932Z,17.00
2018-10-19T08:36:12.514Z,20.47
2018-10-19T08:38:41.942Z,18.80
2018-10-19T08:41:11.496Z,21.20
2018-10-19T08:43:40.812Z,17.60
2018-10-19T08:46:15.223Z,18.83
2018-10-19T08:48:44.561Z,19.90
2018-10-19T08:51:13.907Z,19.90
2018-10-19T08:53:43.078Z,20.33
2018-10-19T08:56:12.416Z,20.27
2018-10-19T08:58:41.710Z,21.43
2018-10-19T09:01:11.083Z,20.03
2018-10-19T09:03:40.397Z,17.57
2018-10-19T09:06:09.878Z,18.47
2018-10-19T09:08:39.456Z,18.00
2018-10-19T09:11:08.818Z,18.87
2018-10-19T09:13:38.769Z,19.37
2018-10-19T09:16:08.118Z,16.93
2018-10-19T09:18:37.356Z,19.47
2018-10-19T09:21:06.876Z,22.03
2018-10-19T09:23:36.441Z,18.87
2018-10-19T09:26:06.102Z,19.53
2018-10-19T09:28:35.390Z,19.17
2018-10-19T09:31:04.666Z,18.53
2018-10-19T09:33:34.227Z,20.77
2018-10-19T09:36:03.721Z,21.30
2018-10-19T09:38:33.431Z,24.20
2018-10-19T09:41:02.930Z,23.67
2018-10-19T09:43:32.168Z,24.47
2018-10-19T09:46:01.417Z,22.17
2018-10-19T09:48:30.905Z,25.07
2018-10-19T09:51:00.516Z,22.30
2018-10-19T09:53:29.977Z,24.20
2018-10-19T09:55:59.480Z,23.13
2018-10-19T09:58:28.871Z,25.30
2018-10-19T10:00:58.912Z,29.67
2018-10-19T10:03:29.209Z,28.27
2018-10-19T10:05:59.016Z,26.03
2018-10-19T10:08:28.579Z,26.93
2018-10-19T10:10:58.187Z,26.10
2018-10-19T10:13:27.663Z,28.40
2018-10-19T10:15:56.969Z,25.70
2018-10-19T10:18:27.419Z,27.23
2018-10-19T10:20:56.694Z,27.23
2018-10-19T10:23:26.147Z,27.53
2018-10-19T10:25:55.749Z,25.20
2018-10-19T10:28:25.107Z,25.23
2018-10-19T10:30:54.454Z,24.00
2018-10-19T10:33:23.892Z,26.60
2018-10-19T10:35:53.286Z,24.57
2018-10-19T10:38:22.762Z,24.67
2018-10-19T10:40:52.231Z,22.80
2018-10-19T10:43:21.597Z,22.77
2018-10-19T10:45:51.054Z,22.37
2018-10-19T10:48:21.821Z,23.30
2018-10-19T10:50:51.274Z,24.47
2018-10-19T10:53:20.860Z,22.37
2018-10-19T10:55:50.355Z,23.17
2018-10-19T10:58:19.755Z,22.63
2018-10-19T11:00:49.090Z,24.63
2018-10-19T11:03:18.510Z,21.50
2018-10-19T11:05:47.801Z,21.90
2018-10-19T11:08:17.226Z,23.20
2018-10-19T11:10:46.567Z,20.50
2018-10-19T11:13:16.372Z,20.10
2018-10-19T11:15:45.575Z,22.47
2018-10-19T11:18:14.878Z,20.17
2018-10-19T11:20:44.183Z,19.80
2018-10-19T11:23:14.007Z,20.27
2018-10-19T11:25:43.573Z,21.40
2018-10-19T11:28:13.399Z,20.67
2018-10-19T11:30:42.708Z,21.67
2018-10-19T11:33:12.160Z,19.80
2018-10-19T11:35:41.640Z,21.17
2018-10-19T11:38:11.036Z,18.47
2018-10-19T11:40:40.553Z,19.90
2018-10-19T11:43:10.056Z,18.67
2018-10-19T11:45:40.211Z,18.83
2018-10-19T11:48:09.650Z,17.33
2018-10-19T11:50:39.077Z,18.03
2018-10-19T11:53:08.594Z,18.60
2018-10-19T11:55:37.886Z,18.50
2018-10-19T11:58:07.358Z,18.23
2018-10-19T12:00:37.087Z,18.17
2018-10-19T12:03:06.374Z,17.40
2018-10-19T12:05:35.813Z,14.20
2018-10-19T12:08:05.390Z,14.30
2018-10-19T12:10:35.360Z,15.70
2018-10-19T12:13:04.661Z,15.83
2018-10-19T12:15:34.725Z,14.17
2018-10-19T12:18:03.842Z,14.50
2018-10-19T12:20:32.867Z,14.77
2018-10-19T12:23:01.982Z,14.63
2018-10-19T12:25:31.402Z,16.00
2018-10-19T12:28:00.462Z,13.63
2018-10-19T12:30:29.480Z,12.77
2018-10-19T12:32:58.961Z,12.30
2018-10-19T12:35:29.074Z,13.20
2018-10-19T12:37:58.201Z,11.63
2018-10-19T12:40:27.552Z,12.43
2018-10-19T12:42:56.866Z,12.40
2018-10-19T12:46:37.472Z,12.80
2018-10-19T12:49:07.240Z,12.20
2018-10-19T12:51:36.527Z,11.13
2018-10-19T12:54:06.267Z,12.30
2018-10-19T12:56:35.656Z,12.93
2018-10-19T12:59:05.407Z,13.57
2018-10-19T13:01:36.039Z,12.03
2018-10-19T13:04:05.863Z,11.27
2018-10-19T13:06:35.249Z,11.33
2018-10-19T13:09:07.267Z,11.77
2018-10-19T13:11:36.749Z,11.07
2018-10-19T13:14:06.611Z,11.13
2018-10-19T13:16:35.962Z,10.10
2018-10-19T13:19:05.632Z,10.23
2018-10-19T13:21:35.287Z,10.73
2018-10-19T13:24:04.978Z,9.77
2018-10-19T13:26:34.578Z,10.60
2018-10-19T13:29:04.278Z,9.83
2018-10-19T13:31:33.735Z,11.07
2018-10-19T13:34:03.346Z,10.73
2018-10-19T13:36:32.681Z,10.40
2018-10-19T13:39:02.119Z,10.00
2018-10-19T13:41:31.599Z,9.60
2018-10-19T13:44:01.879Z,10.10
2018-10-19T13:46:32.098Z,9.90
2018-10-19T13:49:02.123Z,9.23
2018-10-19T13:51:32.445Z,11.23
2018-10-19T13:54:02.038Z,10.30
2018-10-19T13:56:31.622Z,10.57
2018-10-19T13:59:01.059Z,9.20
2018-10-19T14:01:30.434Z,9.80
2018-10-19T14:04:00.668Z,11.13
2018-10-19T14:06:31.019Z,10.50
2018-10-19T14:09:00.393Z,11.23
2018-10-19T14:11:29.667Z,12.07
2018-10-19T14:14:00.112Z,10.70
2018-10-19T14:16:29.397Z,10.80
2018-10-19T14:18:58.723Z,10.63
2018-10-19T14:21:28.071Z,10.63
2018-10-19T14:23:57.403Z,9.83
2018-10-19T14:26:26.836Z,10.93
2018-10-19T14:28:56.323Z,11.27
2018-10-19T14:31:26.523Z,10.77
2018-10-19T14:33:55.902Z,10.20
2018-10-19T14:36:25.445Z,9.37
2018-10-19T14:38:55.479Z,9.27
2018-10-19T14:41:25.048Z,11.20
2018-10-19T14:43:54.784Z,9.73
2018-10-19T14:46:24.197Z,10.93
2018-10-19T14:48:54.993Z,11.47
2018-10-19T14:51:25.112Z,9.13
2018-10-19T14:53:54.565Z,9.50
2018-10-19T14:56:24.065Z,10.20
2018-10-19T14:58:53.393Z,8.90
2018-10-19T15:01:23.153Z,10.23
2018-10-19T15:03:52.835Z,10.03
2018-10-19T15:06:21.992Z,11.47
2018-10-19T15:08:51.608Z,10.30
2018-10-19T15:11:21.181Z,11.77
2018-10-19T15:13:50.327Z,10.97
2018-10-19T15:16:19.636Z,10.50
2018-10-19T15:18:49.267Z,10.63
2018-10-19T15:21:19.023Z,10.67
2018-10-19T15:23:48.417Z,10.80
2018-10-19T15:26:17.831Z,10.97
2018-10-19T15:28:48.161Z,12.47
2018-10-19T15:31:17.855Z,11.17
2018-10-19T15:33:47.279Z,11.43
2018-10-19T15:36:16.727Z,11.97
2018-10-19T15:38:46.665Z,11.77
2018-10-19T15:41:16.025Z,13.00
2018-10-19T15:43:46.895Z,10.83
2018-10-19T15:46:16.400Z,15.50
2018-10-19T15:48:45.816Z,17.07
2018-10-19T15:51:16.368Z,15.93
2018-10-19T15:53:46.995Z,13.60
2018-10-19T15:56:18.097Z,12.57
2018-10-19T15:58:47.612Z,10.27
2018-10-19T16:01:17.410Z,10.80
2018-10-19T16:03:46.846Z,12.60
2018-10-19T16:06:17.006Z,12.80
2018-10-19T16:08:46.061Z,13.20
2018-10-19T16:11:15.304Z,11.67
2018-10-19T16:13:44.456Z,11.60
2018-10-19T16:16:13.557Z,11.83
2018-10-19T16:18:42.636Z,12.23
2018-10-19T16:21:11.896Z,11.70
2018-10-19T16:23:40.959Z,13.77
2018-10-19T16:26:11.996Z,13.80
2018-10-19T16:28:41.602Z,11.53
2018-10-19T16:31:11.111Z,11.87
2018-10-19T16:33:40.484Z,12.27
2018-10-19T16:36:09.995Z,12.67
2018-10-19T16:38:39.452Z,12.07
2018-10-19T16:41:08.824Z,13.03
2018-10-19T16:43:38.357Z,12.17
2018-10-19T16:46:08.124Z,10.83
2018-10-19T16:48:38.536Z,12.10
2018-10-19T16:51:08.693Z,11.17
2018-10-19T16:53:38.116Z,12.00
2018-10-19T16:56:07.487Z,12.07
2018-10-19T16:58:36.989Z,13.10
2018-10-19T17:01:06.649Z,11.67
2018-10-19T17:03:36.019Z,16.10
2018-10-19T17:06:06.128Z,34.90
2018-10-19T17:08:35.629Z,13.70
2018-10-19T17:11:05.291Z,11.70
2018-10-19T17:13:34.883Z,12.37
2018-10-19T17:16:04.492Z,15.77
2018-10-19T17:18:34.185Z,12.77
2018-10-19T17:21:03.928Z,11.67
2018-10-19T17:23:37.072Z,11.70
2018-10-19T17:26:06.993Z,13.03
2018-10-19T17:28:37.789Z,15.50
2018-10-19T17:31:07.890Z,13.50
2018-10-19T17:33:37.394Z,15.30
2018-10-19T17:36:08.179Z,17.03
2018-10-19T17:38:37.844Z,12.60
2018-10-19T17:41:07.298Z,12.43
2018-10-19T17:43:37.928Z,11.77
2018-10-19T17:46:07.366Z,11.60
2018-10-19T17:48:37.461Z,12.63
2018-10-19T17:51:08.125Z,12.33
2018-10-19T17:53:38.878Z,13.10
2018-10-19T17:56:08.700Z,15.33
2018-10-19T17:58:41.666Z,13.70
2018-10-19T18:01:12.283Z,22.10
2018-10-19T18:03:42.634Z,14.20
2018-10-19T18:06:14.000Z,14.57
2018-10-19T18:08:44.728Z,14.53
2018-10-19T18:11:17.225Z,15.97
2018-10-19T18:13:47.047Z,15.13
2018-10-19T18:16:18.722Z,16.33
2018-10-19T18:18:49.235Z,19.10
2018-10-19T18:21:19.292Z,16.70
2018-10-19T18:23:49.048Z,17.70
2018-10-19T18:26:19.692Z,15.83
2018-10-19T18:28:50.718Z,15.00
2018-10-19T18:31:21.524Z,14.30
2018-10-19T18:33:53.356Z,16.57
2018-10-19T18:36:24.244Z,15.63
2018-10-19T18:38:54.162Z,15.00
2018-10-19T18:41:24.337Z,15.93
2018-10-19T18:43:55.256Z,16.03
2018-10-19T18:46:24.907Z,15.00
2018-10-19T18:48:55.548Z,13.97
2018-10-19T18:51:25.161Z,14.90
2018-10-19T18:53:54.775Z,15.03
2018-10-19T18:56:25.868Z,14.33
2018-10-19T18:58:56.573Z,16.40
2018-10-19T19:01:26.299Z,15.00
2018-10-19T19:03:55.867Z,17.83
2018-10-19T19:06:25.711Z,20.40
2018-10-19T19:08:55.086Z,20.23
2018-10-19T19:11:24.511Z,17.53
2018-10-19T19:13:54.666Z,16.53
2018-10-19T19:16:28.488Z,17.20
2018-10-19T19:18:57.905Z,20.10
2018-10-19T19:21:27.586Z,38.17
2018-10-19T19:24:02.151Z,38.90
2018-10-19T19:26:33.459Z,21.17
2018-10-19T19:29:03.173Z,17.00
2018-10-19T19:31:33.184Z,20.70
2018-10-19T19:34:07.668Z,20.90
2018-10-19T19:36:37.140Z,20.10
2018-10-19T19:39:09.468Z,18.23
2018-10-19T19:41:44.047Z,18.93
2018-10-19T19:44:15.155Z,18.10
2018-10-19T19:46:46.514Z,17.40
2018-10-19T19:49:21.377Z,14.67
2018-10-19T19:51:51.870Z,16.70
2018-10-19T19:54:21.329Z,16.17
2018-10-19T19:56:51.760Z,18.23
2018-10-19T19:59:25.355Z,18.33
2018-10-19T20:01:56.675Z,16.10
2018-10-19T20:04:26.357Z,16.77
2018-10-19T20:06:57.056Z,17.30
2018-10-19T20:09:30.533Z,18.00
2018-10-19T20:12:01.511Z,18.13
2018-10-19T20:14:31.375Z,15.60
2018-10-19T20:17:00.856Z,17.33
2018-10-19T20:19:31.389Z,15.00
2018-10-19T20:22:01.135Z,15.90
2018-10-19T20:24:31.552Z,18.00
2018-10-19T20:27:01.050Z,17.57
2018-10-19T20:29:32.276Z,16.17
2018-10-19T20:32:01.798Z,15.30
2018-10-19T20:34:32.067Z,18.70
2018-10-19T20:37:01.644Z,19.43
2018-10-19T20:39:31.982Z,18.27
2018-10-19T20:42:01.555Z,16.23
2018-10-19T20:44:30.955Z,16.00
2018-10-19T20:47:00.329Z,14.70
2018-10-19T20:49:30.407Z,15.90
2018-10-19T20:51:59.825Z,16.27
2018-10-19T20:54:29.370Z,15.13
2018-10-19T20:56:59.644Z,15.67
2018-10-19T20:59:29.459Z,15.67
2018-10-19T21:01:58.927Z,16.67
2018-10-19T21:04:28.333Z,14.40
2018-10-19T21:06:58.392Z,18.60
2018-10-19T21:09:27.780Z,16.73
2018-10-19T21:11:57.852Z,17.10
2018-10-19T21:14:27.324Z,15.67
2018-10-19T21:16:56.939Z,16.30
2018-10-19T21:19:26.493Z,15.17
2018-10-19T21:21:55.911Z,18.47
2018-10-19T21:24:25.466Z,19.70
2018-10-19T21:26:55.336Z,19.20
2018-10-19T21:29:32.047Z,20.50
2018-10-19T21:32:01.394Z,18.43
2018-10-19T21:34:30.819Z,17.80
2018-10-19T21:37:00.197Z,16.10
2018-10-19T21:39:29.729Z,18.10
2018-10-19T21:41:59.135Z,17.80
2018-10-19T21:44:28.538Z,16.43
2018-10-19T21:46:58.003Z,16.67
2018-10-19T21:49:27.414Z,16.73
2018-10-19T21:51:56.723Z,16.80
2018-10-19T21:54:26.060Z,14.87
2018-10-19T21:56:55.502Z,15.13
2018-10-19T21:59:24.980Z,15.90
2018-10-19T22:01:54.430Z,15.40
2018-10-19T22:04:23.875Z,16.73
2018-10-19T22:06:53.244Z,16.50
2018-10-19T22:09:22.644Z,16.40
2018-10-19T22:11:51.988Z,17.23
2018-10-19T22:14:21.530Z,16.70
2018-10-19T22:16:51.049Z,17.67
2018-10-19T22:19:20.400Z,16.77
2018-10-19T22:21:49.921Z,14.70
2018-10-19T22:24:19.302Z,16.70
2018-10-19T22:26:48.688Z,15.47
2018-10-19T22:29:18.146Z,18.73
2018-10-19T22:31:47.631Z,15.77
2018-10-19T22:34:17.176Z,18.10
2018-10-19T22:36:46.615Z,16.60
2018-10-19T22:39:16.352Z,16.30
2018-10-19T22:41:45.759Z,17.67
2018-10-19T22:44:15.553Z,17.87
2018-10-19T22:46:44.899Z,18.27
2018-10-19T22:49:14.091Z,17.23
2018-10-19T22:51:43.503Z,14.83
2018-10-19T22:54:12.928Z,16.10
2018-10-19T22:56:42.574Z,16.70
2018-10-19T22:59:12.038Z,19.90
2018-10-19T23:01:41.452Z,18.40
2018-10-19T23:04:10.857Z,17.63
2018-10-19T23:06:40.323Z,18.30
2018-10-19T23:09:10.201Z,14.70
2018-10-19T23:11:39.670Z,16.57
2018-10-19T23:14:09.116Z,17.00
2018-10-19T23:16:38.863Z,18.20
2018-10-19T23:19:08.704Z,16.90
2018-10-19T23:21:38.151Z,17.10
2018-10-19T23:24:08.172Z,17.13
2018-10-19T23:26:37.740Z,15.50
2018-10-19T23:29:07.316Z,16.40
2018-10-19T23:31:36.854Z,16.43
2018-10-19T23:34:06.973Z,16.57
2018-10-19T23:36:36.677Z,16.47
2018-10-19T23:39:09.402Z,17.80
2018-10-19T23:41:39.013Z,15.50
2018-10-19T23:44:08.490Z,15.53
2018-10-19T23:46:38.227Z,15.27
2018-10-19T23:49:08.082Z,16.07
2018-10-19T23:51:37.686Z,16.17
2018-10-19T23:54:07.011Z,14.90
2018-10-19T23:56:36.393Z,15.20
2018-10-19T23:59:06.206Z,16.83
